<?xml version="1.0" encoding="UTF-8" standalone="no" ?>
<gpx xmlns="http://www.topografix.com/GPX/1/1" xmlns:xsi="http://www.w3.org/2001/XMLSchema-instance" xsi:schemaLocation="http://www.topografix.com/GPX/1/1 http://www.topografix.com/GPX/1/1/gpx.xsd" version="1.1" creator="VisuGPX - https://www.visugpx.com">
  <metadata>
    <name>[05/06/2022] Lac des Lignins [18km-800d]</name>
    <desc><![CDATA[Bivouac Matias]]></desc>
  </metadata>
  <trk>
    <name><![CDATA[2022-06-05 08:51:21]]></name>
    <desc><![CDATA[<p>Heure de départ: 08:51 5 juin 2022<br/>Heure d'arrivée: 13:09 5 juin 2022<br/>Distance: 8,1 km (04:18)<br/>Temps déplacement: 02:56<br/>Vitesse moyenne: 1,89 km/h<br/>Vitesse moyenne mouv.: 2,77 km/h<br/>Vitesse Max.: 21,89 km/h<br/>Altitude minimale: 1598 m<br/>Altitude maximale: 2180 m<br/>Vitesse de montée: 162,4 m/h<br/>Vitesse de descente: 282,9 m/h<br/>Gain d'altitude: 4 m<br/>Perte d'altitude: 653 m<br/>Temps de montée: 00:01<br/>Temps de descente: 02:18<br/></p><hr align="center" width="480" style="height: 2px; width: 517px"/>]]></desc>
    <extensions>
      <line xmlns="http://www.topografix.com/GPX/gpx_style/0/2">
        <color>0000FF</color>
        <width>4</width>
      </line>
    </extensions>
    <trkseg>
      <trkpt lat="44.10521" lon="6.70384">
        <ele>2287.4</ele>
        <time>2022-06-05T06:51:22.000Z</time>
      </trkpt>
      <trkpt lat="44.10536" lon="6.70367">
        <ele>2248.65</ele>
        <time>2022-06-05T06:51:49.000Z</time>
      </trkpt>
      <trkpt lat="44.10899" lon="6.70014">
        <ele>2225.08</ele>
        <time>2022-06-05T07:02:09.000Z</time>
      </trkpt>
      <trkpt lat="44.11253" lon="6.69597">
        <ele>2179.93</ele>
        <time>2022-06-05T07:12:03.000Z</time>
      </trkpt>
      <trkpt lat="44.11527" lon="6.69161">
        <ele>2126.26</ele>
        <time>2022-06-05T07:25:02.000Z</time>
      </trkpt>
      <trkpt lat="44.1153" lon="6.69252">
        <ele>2131.4</ele>
        <time>2022-06-05T07:25:06.000Z</time>
      </trkpt>
      <trkpt lat="44.11535" lon="6.69281">
        <ele>2150.65</ele>
        <time>2022-06-05T07:25:07.000Z</time>
      </trkpt>
      <trkpt lat="44.11542" lon="6.69355">
        <ele>2179.53</ele>
        <time>2022-06-05T07:25:08.000Z</time>
      </trkpt>
      <trkpt lat="44.11559" lon="6.69346">
        <ele>2195.67</ele>
        <time>2022-06-05T07:25:31.000Z</time>
      </trkpt>
      <trkpt lat="44.1157" lon="6.69325">
        <ele>2189.21</ele>
        <time>2022-06-05T07:26:30.000Z</time>
      </trkpt>
      <trkpt lat="44.13315" lon="6.68543">
        <ele>2148.87</ele>
        <time>2022-06-05T08:22:41.000Z</time>
      </trkpt>
      <trkpt lat="44.1352" lon="6.68398">
        <ele>2115.55</ele>
        <time>2022-06-05T08:30:23.000Z</time>
      </trkpt>
      <trkpt lat="44.13521" lon="6.6837">
        <ele>2088.7</ele>
        <time>2022-06-05T08:30:24.000Z</time>
      </trkpt>
      <trkpt lat="44.13695" lon="6.68033">
        <ele>2025.42</ele>
        <time>2022-06-05T08:48:55.000Z</time>
      </trkpt>
      <trkpt lat="44.13871" lon="6.67903">
        <ele>1999.5</ele>
        <time>2022-06-05T08:55:20.000Z</time>
      </trkpt>
      <trkpt lat="44.13978" lon="6.67896">
        <ele>1986.34</ele>
        <time>2022-06-05T08:57:58.000Z</time>
      </trkpt>
      <trkpt lat="44.14117" lon="6.67844">
        <ele>2000.76</ele>
        <time>2022-06-05T09:02:29.000Z</time>
      </trkpt>
      <trkpt lat="44.1439" lon="6.67761">
        <ele>1868.02</ele>
        <time>2022-06-05T09:12:56.000Z</time>
      </trkpt>
      <trkpt lat="44.14376" lon="6.67741">
        <ele>1810.4</ele>
        <time>2022-06-05T09:12:58.000Z</time>
      </trkpt>
      <trkpt lat="44.14369" lon="6.67708">
        <ele>1906.73</ele>
        <time>2022-06-05T09:13:00.000Z</time>
      </trkpt>
      <trkpt lat="44.14358" lon="6.67667">
        <ele>1897.43</ele>
        <time>2022-06-05T09:13:01.000Z</time>
      </trkpt>
      <trkpt lat="44.14376" lon="6.67677">
        <ele>1906.15</ele>
        <time>2022-06-05T09:16:07.000Z</time>
      </trkpt>
      <trkpt lat="44.14388" lon="6.67658">
        <ele>1903.95</ele>
        <time>2022-06-05T09:18:03.000Z</time>
      </trkpt>
      <trkpt lat="44.14404" lon="6.67643">
        <ele>1901.81</ele>
        <time>2022-06-05T09:18:24.000Z</time>
      </trkpt>
      <trkpt lat="44.1442" lon="6.67632">
        <ele>1899.38</ele>
        <time>2022-06-05T09:18:42.000Z</time>
      </trkpt>
      <trkpt lat="44.14436" lon="6.67617">
        <ele>1896.39</ele>
        <time>2022-06-05T09:19:02.000Z</time>
      </trkpt>
      <trkpt lat="44.14449" lon="6.67601">
        <ele>1893.89</ele>
        <time>2022-06-05T09:19:23.000Z</time>
      </trkpt>
      <trkpt lat="44.14466" lon="6.6759">
        <ele>1892.32</ele>
        <time>2022-06-05T09:20:13.000Z</time>
      </trkpt>
      <trkpt lat="44.14481" lon="6.67573">
        <ele>1889.88</ele>
        <time>2022-06-05T09:20:36.000Z</time>
      </trkpt>
      <trkpt lat="44.14494" lon="6.67556">
        <ele>1886.72</ele>
        <time>2022-06-05T09:21:06.000Z</time>
      </trkpt>
      <trkpt lat="44.14508" lon="6.67539">
        <ele>1885.12</ele>
        <time>2022-06-05T09:21:44.000Z</time>
      </trkpt>
      <trkpt lat="44.14521" lon="6.6752">
        <ele>1880.12</ele>
        <time>2022-06-05T09:22:25.000Z</time>
      </trkpt>
      <trkpt lat="44.14532" lon="6.675">
        <ele>1874.29</ele>
        <time>2022-06-05T09:23:02.000Z</time>
      </trkpt>
      <trkpt lat="44.14544" lon="6.67481">
        <ele>1870.19</ele>
        <time>2022-06-05T09:23:39.000Z</time>
      </trkpt>
      <trkpt lat="44.14561" lon="6.67471">
        <ele>1860.18</ele>
        <time>2022-06-05T09:25:57.000Z</time>
      </trkpt>
      <trkpt lat="44.14569" lon="6.67493">
        <ele>1855.59</ele>
        <time>2022-06-05T09:27:12.000Z</time>
      </trkpt>
      <trkpt lat="44.14564" lon="6.67519">
        <ele>1854.19</ele>
        <time>2022-06-05T09:27:35.000Z</time>
      </trkpt>
      <trkpt lat="44.1458" lon="6.67505">
        <ele>1838.75</ele>
        <time>2022-06-05T09:29:28.000Z</time>
      </trkpt>
      <trkpt lat="44.14583" lon="6.6753">
        <ele>1832</ele>
        <time>2022-06-05T09:31:16.000Z</time>
      </trkpt>
      <trkpt lat="44.146" lon="6.67537">
        <ele>1823.71</ele>
        <time>2022-06-05T09:33:01.000Z</time>
      </trkpt>
      <trkpt lat="44.14614" lon="6.67522">
        <ele>1816.86</ele>
        <time>2022-06-05T09:33:39.000Z</time>
      </trkpt>
      <trkpt lat="44.14633" lon="6.67519">
        <ele>1807.19</ele>
        <time>2022-06-05T09:36:26.000Z</time>
      </trkpt>
      <trkpt lat="44.14652" lon="6.67523">
        <ele>1804.53</ele>
        <time>2022-06-05T09:36:42.000Z</time>
      </trkpt>
      <trkpt lat="44.14669" lon="6.67517">
        <ele>1798.98</ele>
        <time>2022-06-05T09:37:00.000Z</time>
      </trkpt>
      <trkpt lat="44.14687" lon="6.67516">
        <ele>1796.27</ele>
        <time>2022-06-05T09:37:19.000Z</time>
      </trkpt>
      <trkpt lat="44.14705" lon="6.67514">
        <ele>1793.01</ele>
        <time>2022-06-05T09:37:44.000Z</time>
      </trkpt>
      <trkpt lat="44.14716" lon="6.67493">
        <ele>1792.54</ele>
        <time>2022-06-05T09:38:56.000Z</time>
      </trkpt>
      <trkpt lat="44.14734" lon="6.67487">
        <ele>1791.23</ele>
        <time>2022-06-05T09:39:16.000Z</time>
      </trkpt>
      <trkpt lat="44.1475" lon="6.67499">
        <ele>1789.2</ele>
        <time>2022-06-05T09:39:32.000Z</time>
      </trkpt>
      <trkpt lat="44.14754" lon="6.67525">
        <ele>1785.96</ele>
        <time>2022-06-05T09:40:51.000Z</time>
      </trkpt>
      <trkpt lat="44.1476" lon="6.67549">
        <ele>1785.62</ele>
        <time>2022-06-05T09:41:07.000Z</time>
      </trkpt>
      <trkpt lat="44.14766" lon="6.67524">
        <ele>1779.94</ele>
        <time>2022-06-05T09:41:47.000Z</time>
      </trkpt>
      <trkpt lat="44.14783" lon="6.67535">
        <ele>1775.98</ele>
        <time>2022-06-05T09:42:07.000Z</time>
      </trkpt>
      <trkpt lat="44.14797" lon="6.67553">
        <ele>1772.05</ele>
        <time>2022-06-05T09:42:29.000Z</time>
      </trkpt>
      <trkpt lat="44.1481" lon="6.67572">
        <ele>1767.01</ele>
        <time>2022-06-05T09:42:49.000Z</time>
      </trkpt>
      <trkpt lat="44.14812" lon="6.67546">
        <ele>1757.42</ele>
        <time>2022-06-05T09:43:27.000Z</time>
      </trkpt>
      <trkpt lat="44.14816" lon="6.67521">
        <ele>1751.2</ele>
        <time>2022-06-05T09:43:56.000Z</time>
      </trkpt>
      <trkpt lat="44.14819" lon="6.67496">
        <ele>1746.92</ele>
        <time>2022-06-05T09:44:22.000Z</time>
      </trkpt>
      <trkpt lat="44.14827" lon="6.67473">
        <ele>1743.48</ele>
        <time>2022-06-05T09:44:42.000Z</time>
      </trkpt>
      <trkpt lat="44.14843" lon="6.67462">
        <ele>1730.8</ele>
        <time>2022-06-05T09:47:06.000Z</time>
      </trkpt>
      <trkpt lat="44.14864" lon="6.67468">
        <ele>1724.02</ele>
        <time>2022-06-05T09:48:07.000Z</time>
      </trkpt>
      <trkpt lat="44.14847" lon="6.67461">
        <ele>1726.63</ele>
        <time>2022-06-05T09:49:09.000Z</time>
      </trkpt>
      <trkpt lat="44.14833" lon="6.67445">
        <ele>1724.47</ele>
        <time>2022-06-05T09:50:21.000Z</time>
      </trkpt>
      <trkpt lat="44.14841" lon="6.67422">
        <ele>1722.67</ele>
        <time>2022-06-05T09:50:45.000Z</time>
      </trkpt>
      <trkpt lat="44.14838" lon="6.67396">
        <ele>1721.57</ele>
        <time>2022-06-05T09:51:25.000Z</time>
      </trkpt>
      <trkpt lat="44.1484" lon="6.67369">
        <ele>1715.79</ele>
        <time>2022-06-05T09:51:53.000Z</time>
      </trkpt>
      <trkpt lat="44.14848" lon="6.67346">
        <ele>1713.27</ele>
        <time>2022-06-05T09:52:11.000Z</time>
      </trkpt>
      <trkpt lat="44.14856" lon="6.67323">
        <ele>1697.38</ele>
        <time>2022-06-05T09:53:29.000Z</time>
      </trkpt>
      <trkpt lat="44.14846" lon="6.67302">
        <ele>1697.36</ele>
        <time>2022-06-05T09:54:05.000Z</time>
      </trkpt>
      <trkpt lat="44.14848" lon="6.67276">
        <ele>1697.63</ele>
        <time>2022-06-05T09:54:25.000Z</time>
      </trkpt>
      <trkpt lat="44.14856" lon="6.67253">
        <ele>1695.67</ele>
        <time>2022-06-05T09:54:57.000Z</time>
      </trkpt>
      <trkpt lat="44.1487" lon="6.67235">
        <ele>1693.02</ele>
        <time>2022-06-05T09:55:30.000Z</time>
      </trkpt>
      <trkpt lat="44.14884" lon="6.67219">
        <ele>1685.46</ele>
        <time>2022-06-05T09:56:19.000Z</time>
      </trkpt>
      <trkpt lat="44.14885" lon="6.67194">
        <ele>1683.1</ele>
        <time>2022-06-05T09:56:37.000Z</time>
      </trkpt>
      <trkpt lat="44.14884" lon="6.67168">
        <ele>1680.07</ele>
        <time>2022-06-05T09:57:08.000Z</time>
      </trkpt>
      <trkpt lat="44.14892" lon="6.67146">
        <ele>1678.83</ele>
        <time>2022-06-05T09:58:05.000Z</time>
      </trkpt>
      <trkpt lat="44.14901" lon="6.67122">
        <ele>1678.85</ele>
        <time>2022-06-05T09:58:52.000Z</time>
      </trkpt>
      <trkpt lat="44.14914" lon="6.67104">
        <ele>1677.61</ele>
        <time>2022-06-05T09:59:25.000Z</time>
      </trkpt>
      <trkpt lat="44.14929" lon="6.6709">
        <ele>1677.57</ele>
        <time>2022-06-05T09:59:42.000Z</time>
      </trkpt>
      <trkpt lat="44.14947" lon="6.6708">
        <ele>1677.67</ele>
        <time>2022-06-05T10:00:08.000Z</time>
      </trkpt>
      <trkpt lat="44.14961" lon="6.67063">
        <ele>1678.14</ele>
        <time>2022-06-05T10:00:25.000Z</time>
      </trkpt>
      <trkpt lat="44.14977" lon="6.67049">
        <ele>1678.48</ele>
        <time>2022-06-05T10:00:46.000Z</time>
      </trkpt>
      <trkpt lat="44.1499" lon="6.67029">
        <ele>1673.2</ele>
        <time>2022-06-05T10:01:06.000Z</time>
      </trkpt>
      <trkpt lat="44.14996" lon="6.67004">
        <ele>1670.51</ele>
        <time>2022-06-05T10:01:23.000Z</time>
      </trkpt>
      <trkpt lat="44.15008" lon="6.66984">
        <ele>1669.01</ele>
        <time>2022-06-05T10:01:49.000Z</time>
      </trkpt>
      <trkpt lat="44.15018" lon="6.66963">
        <ele>1666.95</ele>
        <time>2022-06-05T10:02:20.000Z</time>
      </trkpt>
      <trkpt lat="44.15026" lon="6.66941">
        <ele>1665.83</ele>
        <time>2022-06-05T10:02:40.000Z</time>
      </trkpt>
      <trkpt lat="44.15036" lon="6.66919">
        <ele>1665.69</ele>
        <time>2022-06-05T10:02:55.000Z</time>
      </trkpt>
      <trkpt lat="44.15047" lon="6.66899">
        <ele>1664.43</ele>
        <time>2022-06-05T10:03:05.000Z</time>
      </trkpt>
      <trkpt lat="44.15055" lon="6.66876">
        <ele>1663.57</ele>
        <time>2022-06-05T10:03:20.000Z</time>
      </trkpt>
      <trkpt lat="44.15066" lon="6.66855">
        <ele>1661.58</ele>
        <time>2022-06-05T10:03:42.000Z</time>
      </trkpt>
      <trkpt lat="44.15079" lon="6.66837">
        <ele>1663.97</ele>
        <time>2022-06-05T10:04:13.000Z</time>
      </trkpt>
      <trkpt lat="44.15088" lon="6.66813">
        <ele>1664.25</ele>
        <time>2022-06-05T10:04:31.000Z</time>
      </trkpt>
      <trkpt lat="44.15101" lon="6.66794">
        <ele>1661.96</ele>
        <time>2022-06-05T10:04:43.000Z</time>
      </trkpt>
      <trkpt lat="44.15113" lon="6.66774">
        <ele>1658.67</ele>
        <time>2022-06-05T10:05:00.000Z</time>
      </trkpt>
      <trkpt lat="44.15133" lon="6.66772">
        <ele>1657.65</ele>
        <time>2022-06-05T10:08:53.000Z</time>
      </trkpt>
      <trkpt lat="44.15145" lon="6.66752">
        <ele>1654.42</ele>
        <time>2022-06-05T10:11:48.000Z</time>
      </trkpt>
      <trkpt lat="44.15161" lon="6.6674">
        <ele>1653.22</ele>
        <time>2022-06-05T10:12:07.000Z</time>
      </trkpt>
      <trkpt lat="44.15174" lon="6.66723">
        <ele>1651.32</ele>
        <time>2022-06-05T10:12:25.000Z</time>
      </trkpt>
      <trkpt lat="44.15186" lon="6.66703">
        <ele>1649.02</ele>
        <time>2022-06-05T10:12:42.000Z</time>
      </trkpt>
      <trkpt lat="44.15201" lon="6.66689">
        <ele>1647.72</ele>
        <time>2022-06-05T10:12:56.000Z</time>
      </trkpt>
      <trkpt lat="44.15214" lon="6.66671">
        <ele>1646.63</ele>
        <time>2022-06-05T10:13:13.000Z</time>
      </trkpt>
      <trkpt lat="44.15222" lon="6.66647">
        <ele>1645.13</ele>
        <time>2022-06-05T10:13:29.000Z</time>
      </trkpt>
      <trkpt lat="44.1523" lon="6.66624">
        <ele>1643.7</ele>
        <time>2022-06-05T10:13:48.000Z</time>
      </trkpt>
      <trkpt lat="44.15236" lon="6.66599">
        <ele>1642.99</ele>
        <time>2022-06-05T10:14:10.000Z</time>
      </trkpt>
      <trkpt lat="44.15243" lon="6.66576">
        <ele>1642.22</ele>
        <time>2022-06-05T10:14:33.000Z</time>
      </trkpt>
      <trkpt lat="44.1525" lon="6.66552">
        <ele>1640.72</ele>
        <time>2022-06-05T10:15:02.000Z</time>
      </trkpt>
      <trkpt lat="44.15261" lon="6.66531">
        <ele>1639.42</ele>
        <time>2022-06-05T10:15:29.000Z</time>
      </trkpt>
      <trkpt lat="44.15272" lon="6.6651">
        <ele>1638.8</ele>
        <time>2022-06-05T10:15:44.000Z</time>
      </trkpt>
      <trkpt lat="44.15279" lon="6.66487">
        <ele>1638.49</ele>
        <time>2022-06-05T10:15:59.000Z</time>
      </trkpt>
      <trkpt lat="44.15286" lon="6.66464">
        <ele>1639.33</ele>
        <time>2022-06-05T10:16:55.000Z</time>
      </trkpt>
      <trkpt lat="44.15298" lon="6.66443">
        <ele>1642.01</ele>
        <time>2022-06-05T10:17:16.000Z</time>
      </trkpt>
      <trkpt lat="44.15313" lon="6.6643">
        <ele>1642.69</ele>
        <time>2022-06-05T10:17:40.000Z</time>
      </trkpt>
      <trkpt lat="44.15326" lon="6.66411">
        <ele>1642.5</ele>
        <time>2022-06-05T10:18:14.000Z</time>
      </trkpt>
      <trkpt lat="44.15334" lon="6.66388">
        <ele>1638.91</ele>
        <time>2022-06-05T10:19:04.000Z</time>
      </trkpt>
      <trkpt lat="44.15351" lon="6.66375">
        <ele>1638.96</ele>
        <time>2022-06-05T10:19:21.000Z</time>
      </trkpt>
      <trkpt lat="44.15368" lon="6.66366">
        <ele>1639.1</ele>
        <time>2022-06-05T10:19:37.000Z</time>
      </trkpt>
      <trkpt lat="44.15374" lon="6.66341">
        <ele>1636.14</ele>
        <time>2022-06-05T10:19:55.000Z</time>
      </trkpt>
      <trkpt lat="44.15388" lon="6.66326">
        <ele>1628.99</ele>
        <time>2022-06-05T10:35:36.000Z</time>
      </trkpt>
      <trkpt lat="44.15405" lon="6.66315">
        <ele>1626.1</ele>
        <time>2022-06-05T10:35:55.000Z</time>
      </trkpt>
      <trkpt lat="44.15418" lon="6.66297">
        <ele>1624.03</ele>
        <time>2022-06-05T10:36:13.000Z</time>
      </trkpt>
      <trkpt lat="44.15433" lon="6.66282">
        <ele>1623.7</ele>
        <time>2022-06-05T10:36:30.000Z</time>
      </trkpt>
      <trkpt lat="44.15447" lon="6.66267">
        <ele>1621.51</ele>
        <time>2022-06-05T10:36:46.000Z</time>
      </trkpt>
      <trkpt lat="44.15458" lon="6.66246">
        <ele>1627.35</ele>
        <time>2022-06-05T10:38:17.000Z</time>
      </trkpt>
      <trkpt lat="44.15472" lon="6.66229">
        <ele>1627.69</ele>
        <time>2022-06-05T10:38:34.000Z</time>
      </trkpt>
      <trkpt lat="44.15487" lon="6.66214">
        <ele>1629.26</ele>
        <time>2022-06-05T10:38:52.000Z</time>
      </trkpt>
      <trkpt lat="44.155" lon="6.66196">
        <ele>1631.25</ele>
        <time>2022-06-05T10:39:10.000Z</time>
      </trkpt>
      <trkpt lat="44.15507" lon="6.6617">
        <ele>1632.2</ele>
        <time>2022-06-05T10:39:28.000Z</time>
      </trkpt>
      <trkpt lat="44.15513" lon="6.66146">
        <ele>1632.27</ele>
        <time>2022-06-05T10:39:45.000Z</time>
      </trkpt>
      <trkpt lat="44.15521" lon="6.66123">
        <ele>1633.1</ele>
        <time>2022-06-05T10:40:02.000Z</time>
      </trkpt>
      <trkpt lat="44.15525" lon="6.66097">
        <ele>1632.34</ele>
        <time>2022-06-05T10:40:17.000Z</time>
      </trkpt>
      <trkpt lat="44.15523" lon="6.66072">
        <ele>1631.24</ele>
        <time>2022-06-05T10:40:35.000Z</time>
      </trkpt>
      <trkpt lat="44.15521" lon="6.66046">
        <ele>1630.5</ele>
        <time>2022-06-05T10:40:53.000Z</time>
      </trkpt>
      <trkpt lat="44.15515" lon="6.66022">
        <ele>1628.67</ele>
        <time>2022-06-05T10:41:25.000Z</time>
      </trkpt>
      <trkpt lat="44.15512" lon="6.65997">
        <ele>1627.14</ele>
        <time>2022-06-05T10:41:46.000Z</time>
      </trkpt>
      <trkpt lat="44.15506" lon="6.65971">
        <ele>1625.94</ele>
        <time>2022-06-05T10:42:06.000Z</time>
      </trkpt>
      <trkpt lat="44.15503" lon="6.65945">
        <ele>1624.71</ele>
        <time>2022-06-05T10:42:22.000Z</time>
      </trkpt>
      <trkpt lat="44.15502" lon="6.65919">
        <ele>1622.45</ele>
        <time>2022-06-05T10:42:37.000Z</time>
      </trkpt>
      <trkpt lat="44.15504" lon="6.65894">
        <ele>1621.15</ele>
        <time>2022-06-05T10:42:53.000Z</time>
      </trkpt>
      <trkpt lat="44.15508" lon="6.65868">
        <ele>1619.43</ele>
        <time>2022-06-05T10:43:09.000Z</time>
      </trkpt>
      <trkpt lat="44.15515" lon="6.65845">
        <ele>1618.35</ele>
        <time>2022-06-05T10:43:25.000Z</time>
      </trkpt>
      <trkpt lat="44.15524" lon="6.65823">
        <ele>1616.84</ele>
        <time>2022-06-05T10:43:42.000Z</time>
      </trkpt>
      <trkpt lat="44.15541" lon="6.65812">
        <ele>1615.32</ele>
        <time>2022-06-05T10:43:59.000Z</time>
      </trkpt>
      <trkpt lat="44.1556" lon="6.65809">
        <ele>1614.4</ele>
        <time>2022-06-05T10:44:16.000Z</time>
      </trkpt>
      <trkpt lat="44.15578" lon="6.6581">
        <ele>1613.28</ele>
        <time>2022-06-05T10:44:30.000Z</time>
      </trkpt>
      <trkpt lat="44.15597" lon="6.65808">
        <ele>1611.75</ele>
        <time>2022-06-05T10:44:48.000Z</time>
      </trkpt>
      <trkpt lat="44.15613" lon="6.65798">
        <ele>1609.68</ele>
        <time>2022-06-05T10:45:05.000Z</time>
      </trkpt>
      <trkpt lat="44.15624" lon="6.65777">
        <ele>1606.82</ele>
        <time>2022-06-05T10:45:28.000Z</time>
      </trkpt>
      <trkpt lat="44.15637" lon="6.65759">
        <ele>1604.15</ele>
        <time>2022-06-05T10:45:47.000Z</time>
      </trkpt>
      <trkpt lat="44.15654" lon="6.65768">
        <ele>1605.07</ele>
        <time>2022-06-05T11:02:52.000Z</time>
      </trkpt>
      <trkpt lat="44.15648" lon="6.65744">
        <ele>1594.51</ele>
        <time>2022-06-05T11:06:32.000Z</time>
      </trkpt>
      <trkpt lat="44.15661" lon="6.65725">
        <ele>1595.97</ele>
        <time>2022-06-05T11:06:47.000Z</time>
      </trkpt>
      <trkpt lat="44.1567" lon="6.65701">
        <ele>1598.33</ele>
        <time>2022-06-05T11:07:04.000Z</time>
      </trkpt>
      <trkpt lat="44.15679" lon="6.6568">
        <ele>1599.12</ele>
        <time>2022-06-05T11:07:20.000Z</time>
      </trkpt>
      <trkpt lat="44.15687" lon="6.65657">
        <ele>1599.31</ele>
        <time>2022-06-05T11:07:38.000Z</time>
      </trkpt>
      <trkpt lat="44.1569" lon="6.6563">
        <ele>1599.82</ele>
        <time>2022-06-05T11:07:56.000Z</time>
      </trkpt>
      <trkpt lat="44.15691" lon="6.65605">
        <ele>1599.82</ele>
        <time>2022-06-05T11:08:12.000Z</time>
      </trkpt>
      <trkpt lat="44.15695" lon="6.6558">
        <ele>1599.45</ele>
        <time>2022-06-05T11:08:30.000Z</time>
      </trkpt>
      <trkpt lat="44.15704" lon="6.65557">
        <ele>1598.63</ele>
        <time>2022-06-05T11:08:49.000Z</time>
      </trkpt>
      <trkpt lat="44.15715" lon="6.65537">
        <ele>1598.68</ele>
        <time>2022-06-05T11:09:05.000Z</time>
      </trkpt>
      <trkpt lat="44.15731" lon="6.65524">
        <ele>1597.48</ele>
        <time>2022-06-05T11:09:19.000Z</time>
      </trkpt>
      <trkpt lat="44.15749" lon="6.65518">
        <ele>1593.54</ele>
        <time>2022-06-05T11:09:39.000Z</time>
      </trkpt>
      <trkpt lat="44.15755" lon="6.65518">
        <ele>1568.71</ele>
        <time>2022-06-04T13:13:41.000Z</time>
      </trkpt>
      <trkpt lat="44.15738" lon="6.65526">
        <ele>1575.27</ele>
        <time>2022-06-04T13:23:08.000Z</time>
      </trkpt>
      <trkpt lat="44.15723" lon="6.6554">
        <ele>1577.22</ele>
        <time>2022-06-04T13:23:28.000Z</time>
      </trkpt>
      <trkpt lat="44.15707" lon="6.65557">
        <ele>1580.12</ele>
        <time>2022-06-04T13:23:43.000Z</time>
      </trkpt>
      <trkpt lat="44.15701" lon="6.65582">
        <ele>1586.86</ele>
        <time>2022-06-04T13:23:58.000Z</time>
      </trkpt>
      <trkpt lat="44.15701" lon="6.65608">
        <ele>1591.28</ele>
        <time>2022-06-04T13:24:33.000Z</time>
      </trkpt>
      <trkpt lat="44.15702" lon="6.65636">
        <ele>1591.59</ele>
        <time>2022-06-04T13:24:53.000Z</time>
      </trkpt>
      <trkpt lat="44.15695" lon="6.65671">
        <ele>1594.24</ele>
        <time>2022-06-04T13:25:43.000Z</time>
      </trkpt>
      <trkpt lat="44.15683" lon="6.65693">
        <ele>1595.61</ele>
        <time>2022-06-04T13:26:13.000Z</time>
      </trkpt>
      <trkpt lat="44.15667" lon="6.65717">
        <ele>1595.96</ele>
        <time>2022-06-04T13:27:26.000Z</time>
      </trkpt>
      <trkpt lat="44.15653" lon="6.65742">
        <ele>1598.1</ele>
        <time>2022-06-04T13:27:53.000Z</time>
      </trkpt>
      <trkpt lat="44.15637" lon="6.65752">
        <ele>1601.23</ele>
        <time>2022-06-04T13:28:26.000Z</time>
      </trkpt>
      <trkpt lat="44.15627" lon="6.65778">
        <ele>1603.76</ele>
        <time>2022-06-04T13:28:52.000Z</time>
      </trkpt>
      <trkpt lat="44.15608" lon="6.65797">
        <ele>1606.95</ele>
        <time>2022-06-04T13:29:22.000Z</time>
      </trkpt>
      <trkpt lat="44.15586" lon="6.65807">
        <ele>1609.94</ele>
        <time>2022-06-04T13:29:52.000Z</time>
      </trkpt>
      <trkpt lat="44.15563" lon="6.65812">
        <ele>1612.18</ele>
        <time>2022-06-04T13:30:23.000Z</time>
      </trkpt>
      <trkpt lat="44.1554" lon="6.65817">
        <ele>1614.09</ele>
        <time>2022-06-04T13:30:56.000Z</time>
      </trkpt>
      <trkpt lat="44.15525" lon="6.65835">
        <ele>1614.47</ele>
        <time>2022-06-04T13:32:10.000Z</time>
      </trkpt>
      <trkpt lat="44.15516" lon="6.65865">
        <ele>1614.71</ele>
        <time>2022-06-04T13:32:44.000Z</time>
      </trkpt>
      <trkpt lat="44.15515" lon="6.65895">
        <ele>1614.81</ele>
        <time>2022-06-04T13:33:58.000Z</time>
      </trkpt>
      <trkpt lat="44.15511" lon="6.65925">
        <ele>1615.05</ele>
        <time>2022-06-04T13:34:36.000Z</time>
      </trkpt>
      <trkpt lat="44.15513" lon="6.65956">
        <ele>1615.91</ele>
        <time>2022-06-04T13:34:59.000Z</time>
      </trkpt>
      <trkpt lat="44.1552" lon="6.6598">
        <ele>1616.68</ele>
        <time>2022-06-04T13:35:18.000Z</time>
      </trkpt>
      <trkpt lat="44.15527" lon="6.66008">
        <ele>1615.58</ele>
        <time>2022-06-04T13:35:49.000Z</time>
      </trkpt>
      <trkpt lat="44.1553" lon="6.66041">
        <ele>1614.15</ele>
        <time>2022-06-04T13:36:17.000Z</time>
      </trkpt>
      <trkpt lat="44.15536" lon="6.66072">
        <ele>1613.23</ele>
        <time>2022-06-04T13:36:45.000Z</time>
      </trkpt>
      <trkpt lat="44.15537" lon="6.66102">
        <ele>1615.45</ele>
        <time>2022-06-04T13:37:24.000Z</time>
      </trkpt>
      <trkpt lat="44.15528" lon="6.66132">
        <ele>1619.91</ele>
        <time>2022-06-04T13:37:51.000Z</time>
      </trkpt>
      <trkpt lat="44.15516" lon="6.66161">
        <ele>1623.57</ele>
        <time>2022-06-04T13:38:18.000Z</time>
      </trkpt>
      <trkpt lat="44.15508" lon="6.66184">
        <ele>1625.51</ele>
        <time>2022-06-04T13:38:35.000Z</time>
      </trkpt>
      <trkpt lat="44.15496" lon="6.66205">
        <ele>1627.35</ele>
        <time>2022-06-04T13:38:54.000Z</time>
      </trkpt>
      <trkpt lat="44.1548" lon="6.66219">
        <ele>1630.42</ele>
        <time>2022-06-04T13:39:09.000Z</time>
      </trkpt>
      <trkpt lat="44.15467" lon="6.66237">
        <ele>1631.61</ele>
        <time>2022-06-04T13:39:33.000Z</time>
      </trkpt>
      <trkpt lat="44.15447" lon="6.66257">
        <ele>1631.7</ele>
        <time>2022-06-04T13:40:03.000Z</time>
      </trkpt>
      <trkpt lat="44.15435" lon="6.66276">
        <ele>1631.63</ele>
        <time>2022-06-04T13:40:27.000Z</time>
      </trkpt>
      <trkpt lat="44.15421" lon="6.66293">
        <ele>1631.76</ele>
        <time>2022-06-04T13:40:45.000Z</time>
      </trkpt>
      <trkpt lat="44.15405" lon="6.66309">
        <ele>1630.27</ele>
        <time>2022-06-04T13:41:07.000Z</time>
      </trkpt>
      <trkpt lat="44.15394" lon="6.6633">
        <ele>1628.89</ele>
        <time>2022-06-04T13:41:27.000Z</time>
      </trkpt>
      <trkpt lat="44.15382" lon="6.66348">
        <ele>1627.29</ele>
        <time>2022-06-04T13:41:48.000Z</time>
      </trkpt>
      <trkpt lat="44.15364" lon="6.66372">
        <ele>1625.2</ele>
        <time>2022-06-04T13:42:18.000Z</time>
      </trkpt>
      <trkpt lat="44.15349" lon="6.66386">
        <ele>1626.02</ele>
        <time>2022-06-04T13:42:41.000Z</time>
      </trkpt>
      <trkpt lat="44.15332" lon="6.66407">
        <ele>1627.59</ele>
        <time>2022-06-04T13:43:07.000Z</time>
      </trkpt>
      <trkpt lat="44.15314" lon="6.66428">
        <ele>1628.94</ele>
        <time>2022-06-04T13:43:39.000Z</time>
      </trkpt>
      <trkpt lat="44.15318" lon="6.66453">
        <ele>1627.98</ele>
        <time>2022-06-04T13:45:44.000Z</time>
      </trkpt>
      <trkpt lat="44.15315" lon="6.66479">
        <ele>1627.74</ele>
        <time>2022-06-04T13:46:04.000Z</time>
      </trkpt>
      <trkpt lat="44.15315" lon="6.66505">
        <ele>1628.22</ele>
        <time>2022-06-04T13:46:36.000Z</time>
      </trkpt>
      <trkpt lat="44.15318" lon="6.6653">
        <ele>1632.86</ele>
        <time>2022-06-04T13:46:54.000Z</time>
      </trkpt>
      <trkpt lat="44.15316" lon="6.66556">
        <ele>1635.63</ele>
        <time>2022-06-04T13:47:16.000Z</time>
      </trkpt>
      <trkpt lat="44.15315" lon="6.66593">
        <ele>1634.87</ele>
        <time>2022-06-04T13:47:46.000Z</time>
      </trkpt>
      <trkpt lat="44.15319" lon="6.66624">
        <ele>1635.32</ele>
        <time>2022-06-04T13:48:16.000Z</time>
      </trkpt>
      <trkpt lat="44.15315" lon="6.66655">
        <ele>1635.2</ele>
        <time>2022-06-04T13:48:48.000Z</time>
      </trkpt>
      <trkpt lat="44.15308" lon="6.6668">
        <ele>1636.73</ele>
        <time>2022-06-04T13:49:10.000Z</time>
      </trkpt>
      <trkpt lat="44.15299" lon="6.66707">
        <ele>1640.24</ele>
        <time>2022-06-04T13:50:17.000Z</time>
      </trkpt>
      <trkpt lat="44.15295" lon="6.66732">
        <ele>1641.63</ele>
        <time>2022-06-04T13:50:42.000Z</time>
      </trkpt>
      <trkpt lat="44.15282" lon="6.66748">
        <ele>1642.73</ele>
        <time>2022-06-04T13:51:01.000Z</time>
      </trkpt>
      <trkpt lat="44.15265" lon="6.66759">
        <ele>1645.06</ele>
        <time>2022-06-04T13:51:19.000Z</time>
      </trkpt>
      <trkpt lat="44.15254" lon="6.6678">
        <ele>1646.48</ele>
        <time>2022-06-04T13:51:37.000Z</time>
      </trkpt>
      <trkpt lat="44.15255" lon="6.66805">
        <ele>1647.33</ele>
        <time>2022-06-04T13:51:56.000Z</time>
      </trkpt>
      <trkpt lat="44.15247" lon="6.66829">
        <ele>1647.4</ele>
        <time>2022-06-04T13:52:13.000Z</time>
      </trkpt>
      <trkpt lat="44.15236" lon="6.6685">
        <ele>1647.27</ele>
        <time>2022-06-04T13:52:30.000Z</time>
      </trkpt>
      <trkpt lat="44.15226" lon="6.66871">
        <ele>1646.41</ele>
        <time>2022-06-04T13:52:48.000Z</time>
      </trkpt>
      <trkpt lat="44.1521" lon="6.66898">
        <ele>1646.51</ele>
        <time>2022-06-04T13:53:21.000Z</time>
      </trkpt>
      <trkpt lat="44.15198" lon="6.66917">
        <ele>1647.67</ele>
        <time>2022-06-04T13:53:39.000Z</time>
      </trkpt>
      <trkpt lat="44.15187" lon="6.66941">
        <ele>1649.03</ele>
        <time>2022-06-04T13:54:09.000Z</time>
      </trkpt>
      <trkpt lat="44.15173" lon="6.66963">
        <ele>1649.62</ele>
        <time>2022-06-04T13:54:39.000Z</time>
      </trkpt>
      <trkpt lat="44.15158" lon="6.66989">
        <ele>1649.31</ele>
        <time>2022-06-04T13:55:06.000Z</time>
      </trkpt>
      <trkpt lat="44.15145" lon="6.67015">
        <ele>1649.91</ele>
        <time>2022-06-04T13:56:43.000Z</time>
      </trkpt>
      <trkpt lat="44.15134" lon="6.67045">
        <ele>1650.76</ele>
        <time>2022-06-04T13:57:14.000Z</time>
      </trkpt>
      <trkpt lat="44.15143" lon="6.67073">
        <ele>1652.48</ele>
        <time>2022-06-04T13:58:04.000Z</time>
      </trkpt>
      <trkpt lat="44.15157" lon="6.6709">
        <ele>1651.52</ele>
        <time>2022-06-04T13:58:25.000Z</time>
      </trkpt>
      <trkpt lat="44.1517" lon="6.67107">
        <ele>1655.16</ele>
        <time>2022-06-04T13:58:52.000Z</time>
      </trkpt>
      <trkpt lat="44.15172" lon="6.67138">
        <ele>1659.03</ele>
        <time>2022-06-04T14:00:06.000Z</time>
      </trkpt>
      <trkpt lat="44.15169" lon="6.67171">
        <ele>1660.49</ele>
        <time>2022-06-04T14:00:46.000Z</time>
      </trkpt>
      <trkpt lat="44.15162" lon="6.67201">
        <ele>1659.43</ele>
        <time>2022-06-04T14:01:16.000Z</time>
      </trkpt>
      <trkpt lat="44.15171" lon="6.67228">
        <ele>1659.79</ele>
        <time>2022-06-04T14:01:46.000Z</time>
      </trkpt>
      <trkpt lat="44.15191" lon="6.67215">
        <ele>1661.13</ele>
        <time>2022-06-04T14:02:20.000Z</time>
      </trkpt>
      <trkpt lat="44.1521" lon="6.67192">
        <ele>1662.54</ele>
        <time>2022-06-04T14:02:48.000Z</time>
      </trkpt>
      <trkpt lat="44.1522" lon="6.67163">
        <ele>1664.92</ele>
        <time>2022-06-04T14:03:19.000Z</time>
      </trkpt>
      <trkpt lat="44.1523" lon="6.67136">
        <ele>1667.49</ele>
        <time>2022-06-04T14:03:49.000Z</time>
      </trkpt>
      <trkpt lat="44.15239" lon="6.67106">
        <ele>1670.3</ele>
        <time>2022-06-04T14:04:33.000Z</time>
      </trkpt>
      <trkpt lat="44.15246" lon="6.67077">
        <ele>1672.85</ele>
        <time>2022-06-04T14:05:08.000Z</time>
      </trkpt>
      <trkpt lat="44.15253" lon="6.67048">
        <ele>1675.67</ele>
        <time>2022-06-04T14:06:06.000Z</time>
      </trkpt>
      <trkpt lat="44.15263" lon="6.67018">
        <ele>1679.11</ele>
        <time>2022-06-04T14:06:48.000Z</time>
      </trkpt>
      <trkpt lat="44.1528" lon="6.67">
        <ele>1680.15</ele>
        <time>2022-06-04T14:07:29.000Z</time>
      </trkpt>
      <trkpt lat="44.15299" lon="6.66982">
        <ele>1682.82</ele>
        <time>2022-06-04T14:07:57.000Z</time>
      </trkpt>
      <trkpt lat="44.15316" lon="6.66959">
        <ele>1686.79</ele>
        <time>2022-06-04T14:08:32.000Z</time>
      </trkpt>
      <trkpt lat="44.15332" lon="6.66981">
        <ele>1689.75</ele>
        <time>2022-06-04T14:09:29.000Z</time>
      </trkpt>
      <trkpt lat="44.15335" lon="6.67013">
        <ele>1694.38</ele>
        <time>2022-06-04T14:10:40.000Z</time>
      </trkpt>
      <trkpt lat="44.15334" lon="6.67044">
        <ele>1698.23</ele>
        <time>2022-06-04T14:11:12.000Z</time>
      </trkpt>
      <trkpt lat="44.15331" lon="6.67075">
        <ele>1699.22</ele>
        <time>2022-06-04T14:12:06.000Z</time>
      </trkpt>
      <trkpt lat="44.15327" lon="6.67109">
        <ele>1700.23</ele>
        <time>2022-06-04T14:12:52.000Z</time>
      </trkpt>
      <trkpt lat="44.15322" lon="6.67138">
        <ele>1702.58</ele>
        <time>2022-06-04T14:13:24.000Z</time>
      </trkpt>
      <trkpt lat="44.15317" lon="6.67169">
        <ele>1705.62</ele>
        <time>2022-06-04T14:13:56.000Z</time>
      </trkpt>
      <trkpt lat="44.15315" lon="6.672">
        <ele>1709.94</ele>
        <time>2022-06-04T14:14:34.000Z</time>
      </trkpt>
      <trkpt lat="44.15311" lon="6.6723">
        <ele>1715.3</ele>
        <time>2022-06-04T14:15:09.000Z</time>
      </trkpt>
      <trkpt lat="44.15301" lon="6.67255">
        <ele>1719.59</ele>
        <time>2022-06-04T14:16:53.000Z</time>
      </trkpt>
      <trkpt lat="44.15285" lon="6.67277">
        <ele>1721.24</ele>
        <time>2022-06-04T14:17:32.000Z</time>
      </trkpt>
      <trkpt lat="44.15277" lon="6.67306">
        <ele>1722.29</ele>
        <time>2022-06-04T14:18:24.000Z</time>
      </trkpt>
      <trkpt lat="44.15272" lon="6.67334">
        <ele>1723.44</ele>
        <time>2022-06-04T14:19:03.000Z</time>
      </trkpt>
      <trkpt lat="44.15257" lon="6.67355">
        <ele>1725.71</ele>
        <time>2022-06-04T14:19:42.000Z</time>
      </trkpt>
      <trkpt lat="44.15243" lon="6.6738">
        <ele>1728.7</ele>
        <time>2022-06-04T14:20:29.000Z</time>
      </trkpt>
      <trkpt lat="44.1523" lon="6.67405">
        <ele>1731.93</ele>
        <time>2022-06-04T14:20:59.000Z</time>
      </trkpt>
      <trkpt lat="44.15216" lon="6.67429">
        <ele>1733.69</ele>
        <time>2022-06-04T14:21:39.000Z</time>
      </trkpt>
      <trkpt lat="44.15199" lon="6.67451">
        <ele>1735.27</ele>
        <time>2022-06-04T14:22:13.000Z</time>
      </trkpt>
      <trkpt lat="44.15185" lon="6.67474">
        <ele>1736.43</ele>
        <time>2022-06-04T14:22:44.000Z</time>
      </trkpt>
      <trkpt lat="44.15166" lon="6.67494">
        <ele>1738.52</ele>
        <time>2022-06-04T14:23:12.000Z</time>
      </trkpt>
      <trkpt lat="44.15146" lon="6.67509">
        <ele>1739.76</ele>
        <time>2022-06-04T14:23:43.000Z</time>
      </trkpt>
      <trkpt lat="44.15125" lon="6.6751">
        <ele>1741.35</ele>
        <time>2022-06-04T14:25:04.000Z</time>
      </trkpt>
      <trkpt lat="44.15109" lon="6.67525">
        <ele>1743.8</ele>
        <time>2022-06-04T14:26:10.000Z</time>
      </trkpt>
      <trkpt lat="44.1509" lon="6.67527">
        <ele>1748.21</ele>
        <time>2022-06-04T14:26:50.000Z</time>
      </trkpt>
      <trkpt lat="44.15071" lon="6.6755">
        <ele>1751.18</ele>
        <time>2022-06-04T14:27:39.000Z</time>
      </trkpt>
      <trkpt lat="44.15052" lon="6.67565">
        <ele>1751.92</ele>
        <time>2022-06-04T14:28:15.000Z</time>
      </trkpt>
      <trkpt lat="44.15035" lon="6.67583">
        <ele>1754.11</ele>
        <time>2022-06-04T14:29:05.000Z</time>
      </trkpt>
      <trkpt lat="44.1502" lon="6.67605">
        <ele>1756.61</ele>
        <time>2022-06-04T14:30:06.000Z</time>
      </trkpt>
      <trkpt lat="44.15009" lon="6.67631">
        <ele>1759.75</ele>
        <time>2022-06-04T14:30:48.000Z</time>
      </trkpt>
      <trkpt lat="44.15001" lon="6.67654">
        <ele>1763.65</ele>
        <time>2022-06-04T14:35:49.000Z</time>
      </trkpt>
      <trkpt lat="44.14985" lon="6.67674">
        <ele>1763.13</ele>
        <time>2022-06-04T14:36:18.000Z</time>
      </trkpt>
      <trkpt lat="44.14972" lon="6.67699">
        <ele>1764.44</ele>
        <time>2022-06-04T14:36:54.000Z</time>
      </trkpt>
      <trkpt lat="44.14953" lon="6.67704">
        <ele>1765.83</ele>
        <time>2022-06-04T14:37:52.000Z</time>
      </trkpt>
      <trkpt lat="44.14935" lon="6.6771">
        <ele>1770.39</ele>
        <time>2022-06-04T14:38:04.000Z</time>
      </trkpt>
      <trkpt lat="44.14918" lon="6.67731">
        <ele>1772.75</ele>
        <time>2022-06-04T14:38:30.000Z</time>
      </trkpt>
      <trkpt lat="44.14909" lon="6.67761">
        <ele>1775.25</ele>
        <time>2022-06-04T14:39:02.000Z</time>
      </trkpt>
      <trkpt lat="44.1489" lon="6.6778">
        <ele>1776.6</ele>
        <time>2022-06-04T14:39:31.000Z</time>
      </trkpt>
      <trkpt lat="44.14876" lon="6.67802">
        <ele>1781.26</ele>
        <time>2022-06-04T14:40:28.000Z</time>
      </trkpt>
      <trkpt lat="44.14858" lon="6.67821">
        <ele>1784.89</ele>
        <time>2022-06-04T14:41:06.000Z</time>
      </trkpt>
      <trkpt lat="44.14839" lon="6.67839">
        <ele>1789.06</ele>
        <time>2022-06-04T14:41:56.000Z</time>
      </trkpt>
      <trkpt lat="44.14825" lon="6.67862">
        <ele>1790.83</ele>
        <time>2022-06-04T14:42:36.000Z</time>
      </trkpt>
      <trkpt lat="44.14806" lon="6.6788">
        <ele>1794.94</ele>
        <time>2022-06-04T14:43:08.000Z</time>
      </trkpt>
      <trkpt lat="44.14791" lon="6.67902">
        <ele>1800.69</ele>
        <time>2022-06-04T14:44:14.000Z</time>
      </trkpt>
      <trkpt lat="44.1477" lon="6.67916">
        <ele>1803.69</ele>
        <time>2022-06-04T14:44:45.000Z</time>
      </trkpt>
      <trkpt lat="44.14761" lon="6.67946">
        <ele>1807.47</ele>
        <time>2022-06-04T14:45:22.000Z</time>
      </trkpt>
      <trkpt lat="44.14745" lon="6.67965">
        <ele>1810.95</ele>
        <time>2022-06-04T14:46:00.000Z</time>
      </trkpt>
      <trkpt lat="44.14726" lon="6.67982">
        <ele>1815.05</ele>
        <time>2022-06-04T14:46:38.000Z</time>
      </trkpt>
      <trkpt lat="44.1471" lon="6.68003">
        <ele>1818.83</ele>
        <time>2022-06-04T14:47:11.000Z</time>
      </trkpt>
      <trkpt lat="44.1469" lon="6.68015">
        <ele>1821.88</ele>
        <time>2022-06-04T14:48:14.000Z</time>
      </trkpt>
      <trkpt lat="44.14675" lon="6.68034">
        <ele>1825.36</ele>
        <time>2022-06-04T14:49:02.000Z</time>
      </trkpt>
      <trkpt lat="44.14654" lon="6.68049">
        <ele>1835.05</ele>
        <time>2022-06-04T14:58:54.000Z</time>
      </trkpt>
      <trkpt lat="44.1464" lon="6.68071">
        <ele>1838.79</ele>
        <time>2022-06-04T14:59:33.000Z</time>
      </trkpt>
      <trkpt lat="44.14625" lon="6.68097">
        <ele>1842.16</ele>
        <time>2022-06-04T15:00:06.000Z</time>
      </trkpt>
      <trkpt lat="44.14605" lon="6.68109">
        <ele>1846.85</ele>
        <time>2022-06-04T15:00:40.000Z</time>
      </trkpt>
      <trkpt lat="44.14583" lon="6.68116">
        <ele>1850.19</ele>
        <time>2022-06-04T15:01:54.000Z</time>
      </trkpt>
      <trkpt lat="44.14562" lon="6.6812">
        <ele>1851.77</ele>
        <time>2022-06-04T15:02:33.000Z</time>
      </trkpt>
      <trkpt lat="44.14545" lon="6.68141">
        <ele>1855.48</ele>
        <time>2022-06-04T15:03:20.000Z</time>
      </trkpt>
      <trkpt lat="44.14526" lon="6.6816">
        <ele>1858.82</ele>
        <time>2022-06-04T15:03:47.000Z</time>
      </trkpt>
      <trkpt lat="44.14509" lon="6.68171">
        <ele>1861.72</ele>
        <time>2022-06-04T15:04:04.000Z</time>
      </trkpt>
      <trkpt lat="44.1449" lon="6.68189">
        <ele>1864.56</ele>
        <time>2022-06-04T15:04:32.000Z</time>
      </trkpt>
      <trkpt lat="44.14474" lon="6.68205">
        <ele>1867.21</ele>
        <time>2022-06-04T15:04:53.000Z</time>
      </trkpt>
      <trkpt lat="44.14457" lon="6.68222">
        <ele>1871.83</ele>
        <time>2022-06-04T15:05:15.000Z</time>
      </trkpt>
      <trkpt lat="44.1444" lon="6.68229">
        <ele>1876.57</ele>
        <time>2022-06-04T15:05:30.000Z</time>
      </trkpt>
      <trkpt lat="44.1442" lon="6.68252">
        <ele>1880.53</ele>
        <time>2022-06-04T15:06:00.000Z</time>
      </trkpt>
      <trkpt lat="44.14406" lon="6.6827">
        <ele>1881.45</ele>
        <time>2022-06-04T15:06:30.000Z</time>
      </trkpt>
      <trkpt lat="44.14393" lon="6.68288">
        <ele>1881.93</ele>
        <time>2022-06-04T15:07:00.000Z</time>
      </trkpt>
      <trkpt lat="44.14377" lon="6.683">
        <ele>1881.76</ele>
        <time>2022-06-04T15:07:18.000Z</time>
      </trkpt>
      <trkpt lat="44.14361" lon="6.68313">
        <ele>1881.04</ele>
        <time>2022-06-04T15:07:39.000Z</time>
      </trkpt>
      <trkpt lat="44.14342" lon="6.68335">
        <ele>1882.82</ele>
        <time>2022-06-04T15:08:06.000Z</time>
      </trkpt>
      <trkpt lat="44.14326" lon="6.68346">
        <ele>1883.58</ele>
        <time>2022-06-04T15:08:35.000Z</time>
      </trkpt>
      <trkpt lat="44.14304" lon="6.68348">
        <ele>1883.91</ele>
        <time>2022-06-04T15:09:21.000Z</time>
      </trkpt>
      <trkpt lat="44.14284" lon="6.68359">
        <ele>1885.81</ele>
        <time>2022-06-04T15:10:06.000Z</time>
      </trkpt>
      <trkpt lat="44.14266" lon="6.6836">
        <ele>1889.27</ele>
        <time>2022-06-04T15:10:26.000Z</time>
      </trkpt>
      <trkpt lat="44.14248" lon="6.68363">
        <ele>1894.52</ele>
        <time>2022-06-04T15:10:48.000Z</time>
      </trkpt>
      <trkpt lat="44.14226" lon="6.68367">
        <ele>1898.7</ele>
        <time>2022-06-04T15:11:14.000Z</time>
      </trkpt>
      <trkpt lat="44.14208" lon="6.68372">
        <ele>1899.15</ele>
        <time>2022-06-04T15:11:59.000Z</time>
      </trkpt>
      <trkpt lat="44.1419" lon="6.6838">
        <ele>1900.98</ele>
        <time>2022-06-04T15:12:20.000Z</time>
      </trkpt>
      <trkpt lat="44.14173" lon="6.68391">
        <ele>1900.41</ele>
        <time>2022-06-04T15:12:47.000Z</time>
      </trkpt>
      <trkpt lat="44.14156" lon="6.684">
        <ele>1896.39</ele>
        <time>2022-06-04T15:13:07.000Z</time>
      </trkpt>
      <trkpt lat="44.14138" lon="6.68407">
        <ele>1895.2</ele>
        <time>2022-06-04T15:13:24.000Z</time>
      </trkpt>
      <trkpt lat="44.1412" lon="6.68407">
        <ele>1894.37</ele>
        <time>2022-06-04T15:13:40.000Z</time>
      </trkpt>
      <trkpt lat="44.14101" lon="6.68415">
        <ele>1889.67</ele>
        <time>2022-06-04T15:14:01.000Z</time>
      </trkpt>
      <trkpt lat="44.14083" lon="6.68417">
        <ele>1888.51</ele>
        <time>2022-06-04T15:14:41.000Z</time>
      </trkpt>
      <trkpt lat="44.14066" lon="6.68426">
        <ele>1888.64</ele>
        <time>2022-06-04T15:15:19.000Z</time>
      </trkpt>
      <trkpt lat="44.14048" lon="6.68435">
        <ele>1888.69</ele>
        <time>2022-06-04T15:15:43.000Z</time>
      </trkpt>
      <trkpt lat="44.14029" lon="6.6844">
        <ele>1888.76</ele>
        <time>2022-06-04T15:16:02.000Z</time>
      </trkpt>
      <trkpt lat="44.14011" lon="6.68437">
        <ele>1888.7</ele>
        <time>2022-06-04T15:16:27.000Z</time>
      </trkpt>
      <trkpt lat="44.13993" lon="6.68437">
        <ele>1887.91</ele>
        <time>2022-06-04T15:16:46.000Z</time>
      </trkpt>
      <trkpt lat="44.13968" lon="6.68447">
        <ele>1889.75</ele>
        <time>2022-06-04T15:17:17.000Z</time>
      </trkpt>
      <trkpt lat="44.1395" lon="6.68455">
        <ele>1890.58</ele>
        <time>2022-06-04T15:17:36.000Z</time>
      </trkpt>
      <trkpt lat="44.13935" lon="6.68475">
        <ele>1891.15</ele>
        <time>2022-06-04T15:18:13.000Z</time>
      </trkpt>
      <trkpt lat="44.13921" lon="6.68495">
        <ele>1891.58</ele>
        <time>2022-06-04T15:18:34.000Z</time>
      </trkpt>
      <trkpt lat="44.13903" lon="6.68502">
        <ele>1892.61</ele>
        <time>2022-06-04T15:18:55.000Z</time>
      </trkpt>
      <trkpt lat="44.13885" lon="6.68507">
        <ele>1892.61</ele>
        <time>2022-06-04T15:19:12.000Z</time>
      </trkpt>
      <trkpt lat="44.13867" lon="6.68515">
        <ele>1893.13</ele>
        <time>2022-06-04T15:19:31.000Z</time>
      </trkpt>
      <trkpt lat="44.13851" lon="6.68529">
        <ele>1894.63</ele>
        <time>2022-06-04T15:19:50.000Z</time>
      </trkpt>
      <trkpt lat="44.13836" lon="6.68543">
        <ele>1896.63</ele>
        <time>2022-06-04T15:20:09.000Z</time>
      </trkpt>
      <trkpt lat="44.13821" lon="6.68558">
        <ele>1896.37</ele>
        <time>2022-06-04T15:20:27.000Z</time>
      </trkpt>
      <trkpt lat="44.13812" lon="6.68585">
        <ele>1896.12</ele>
        <time>2022-06-04T15:22:57.000Z</time>
      </trkpt>
      <trkpt lat="44.13789" lon="6.68599">
        <ele>1896.91</ele>
        <time>2022-06-04T15:23:59.000Z</time>
      </trkpt>
      <trkpt lat="44.1377" lon="6.68616">
        <ele>1895.66</ele>
        <time>2022-06-04T15:24:30.000Z</time>
      </trkpt>
      <trkpt lat="44.13752" lon="6.68622">
        <ele>1892.56</ele>
        <time>2022-06-04T15:25:58.000Z</time>
      </trkpt>
      <trkpt lat="44.13736" lon="6.68638">
        <ele>1895.15</ele>
        <time>2022-06-04T15:26:24.000Z</time>
      </trkpt>
      <trkpt lat="44.13722" lon="6.68664">
        <ele>1899.5</ele>
        <time>2022-06-04T15:27:00.000Z</time>
      </trkpt>
      <trkpt lat="44.13708" lon="6.68688">
        <ele>1901.64</ele>
        <time>2022-06-04T15:27:42.000Z</time>
      </trkpt>
      <trkpt lat="44.1369" lon="6.68706">
        <ele>1905.32</ele>
        <time>2022-06-04T15:28:22.000Z</time>
      </trkpt>
      <trkpt lat="44.13673" lon="6.68724">
        <ele>1913.71</ele>
        <time>2022-06-04T15:29:10.000Z</time>
      </trkpt>
      <trkpt lat="44.13654" lon="6.68737">
        <ele>1918.65</ele>
        <time>2022-06-04T15:29:45.000Z</time>
      </trkpt>
      <trkpt lat="44.13633" lon="6.68745">
        <ele>1921.98</ele>
        <time>2022-06-04T15:36:59.000Z</time>
      </trkpt>
      <trkpt lat="44.13612" lon="6.68762">
        <ele>1924.64</ele>
        <time>2022-06-04T15:37:43.000Z</time>
      </trkpt>
      <trkpt lat="44.13591" lon="6.68777">
        <ele>1924.84</ele>
        <time>2022-06-04T15:38:11.000Z</time>
      </trkpt>
      <trkpt lat="44.13572" lon="6.68795">
        <ele>1924.79</ele>
        <time>2022-06-04T15:38:42.000Z</time>
      </trkpt>
      <trkpt lat="44.13551" lon="6.68812">
        <ele>1925.44</ele>
        <time>2022-06-04T15:39:15.000Z</time>
      </trkpt>
      <trkpt lat="44.1353" lon="6.68826">
        <ele>1929.6</ele>
        <time>2022-06-04T15:39:52.000Z</time>
      </trkpt>
      <trkpt lat="44.13507" lon="6.68834">
        <ele>1931.62</ele>
        <time>2022-06-04T15:40:30.000Z</time>
      </trkpt>
      <trkpt lat="44.13486" lon="6.68847">
        <ele>1932.3</ele>
        <time>2022-06-04T15:41:08.000Z</time>
      </trkpt>
      <trkpt lat="44.13465" lon="6.68864">
        <ele>1930.47</ele>
        <time>2022-06-04T15:41:39.000Z</time>
      </trkpt>
      <trkpt lat="44.13448" lon="6.68882">
        <ele>1931.21</ele>
        <time>2022-06-04T15:42:20.000Z</time>
      </trkpt>
      <trkpt lat="44.13428" lon="6.68899">
        <ele>1931.33</ele>
        <time>2022-06-04T15:42:51.000Z</time>
      </trkpt>
      <trkpt lat="44.13411" lon="6.68918">
        <ele>1934.31</ele>
        <time>2022-06-04T15:43:26.000Z</time>
      </trkpt>
      <trkpt lat="44.1339" lon="6.68932">
        <ele>1940.26</ele>
        <time>2022-06-04T15:43:56.000Z</time>
      </trkpt>
      <trkpt lat="44.1337" lon="6.68947">
        <ele>1945.52</ele>
        <time>2022-06-04T15:44:27.000Z</time>
      </trkpt>
      <trkpt lat="44.13347" lon="6.68961">
        <ele>1948.78</ele>
        <time>2022-06-04T15:44:58.000Z</time>
      </trkpt>
      <trkpt lat="44.13332" lon="6.68989">
        <ele>1952.5</ele>
        <time>2022-06-04T15:45:23.000Z</time>
      </trkpt>
      <trkpt lat="44.13312" lon="6.69007">
        <ele>1958.29</ele>
        <time>2022-06-04T15:45:56.000Z</time>
      </trkpt>
      <trkpt lat="44.13291" lon="6.69017">
        <ele>1966.73</ele>
        <time>2022-06-04T15:46:30.000Z</time>
      </trkpt>
      <trkpt lat="44.13276" lon="6.69033">
        <ele>1972.51</ele>
        <time>2022-06-04T15:46:54.000Z</time>
      </trkpt>
      <trkpt lat="44.13254" lon="6.69049">
        <ele>1974.22</ele>
        <time>2022-06-04T15:47:22.000Z</time>
      </trkpt>
      <trkpt lat="44.13233" lon="6.69062">
        <ele>1975.66</ele>
        <time>2022-06-04T15:47:54.000Z</time>
      </trkpt>
      <trkpt lat="44.13212" lon="6.69076">
        <ele>1977.08</ele>
        <time>2022-06-04T15:48:32.000Z</time>
      </trkpt>
      <trkpt lat="44.13192" lon="6.69095">
        <ele>1977.92</ele>
        <time>2022-06-04T15:49:00.000Z</time>
      </trkpt>
      <trkpt lat="44.13169" lon="6.69106">
        <ele>1978.33</ele>
        <time>2022-06-04T15:49:34.000Z</time>
      </trkpt>
      <trkpt lat="44.13151" lon="6.69126">
        <ele>1980.3</ele>
        <time>2022-06-04T15:50:01.000Z</time>
      </trkpt>
      <trkpt lat="44.13131" lon="6.6914">
        <ele>1983.15</ele>
        <time>2022-06-04T15:50:33.000Z</time>
      </trkpt>
      <trkpt lat="44.13108" lon="6.69151">
        <ele>1987.28</ele>
        <time>2022-06-04T15:51:08.000Z</time>
      </trkpt>
      <trkpt lat="44.13089" lon="6.69165">
        <ele>1987.5</ele>
        <time>2022-06-04T15:51:55.000Z</time>
      </trkpt>
      <trkpt lat="44.13068" lon="6.69175">
        <ele>1988.62</ele>
        <time>2022-06-04T15:52:29.000Z</time>
      </trkpt>
      <trkpt lat="44.13045" lon="6.69182">
        <ele>1990.02</ele>
        <time>2022-06-04T15:52:58.000Z</time>
      </trkpt>
      <trkpt lat="44.13022" lon="6.69182">
        <ele>1992.75</ele>
        <time>2022-06-04T15:53:29.000Z</time>
      </trkpt>
      <trkpt lat="44.12999" lon="6.69182">
        <ele>1995.6</ele>
        <time>2022-06-04T15:53:59.000Z</time>
      </trkpt>
      <trkpt lat="44.12979" lon="6.69187">
        <ele>1994.82</ele>
        <time>2022-06-04T15:54:30.000Z</time>
      </trkpt>
      <trkpt lat="44.12961" lon="6.69188">
        <ele>1993.69</ele>
        <time>2022-06-04T15:54:49.000Z</time>
      </trkpt>
      <trkpt lat="44.1294" lon="6.69195">
        <ele>1993.66</ele>
        <time>2022-06-04T15:55:19.000Z</time>
      </trkpt>
      <trkpt lat="44.12918" lon="6.69206">
        <ele>1994.1</ele>
        <time>2022-06-04T15:55:56.000Z</time>
      </trkpt>
      <trkpt lat="44.12895" lon="6.69221">
        <ele>1994.3</ele>
        <time>2022-06-04T15:56:32.000Z</time>
      </trkpt>
      <trkpt lat="44.12876" lon="6.69233">
        <ele>1995.22</ele>
        <time>2022-06-04T15:57:18.000Z</time>
      </trkpt>
      <trkpt lat="44.12863" lon="6.69256">
        <ele>1997.79</ele>
        <time>2022-06-04T15:58:07.000Z</time>
      </trkpt>
      <trkpt lat="44.12839" lon="6.69268">
        <ele>1999.41</ele>
        <time>2022-06-04T15:58:38.000Z</time>
      </trkpt>
      <trkpt lat="44.12822" lon="6.6929">
        <ele>2001.83</ele>
        <time>2022-06-04T15:59:16.000Z</time>
      </trkpt>
      <trkpt lat="44.12801" lon="6.69307">
        <ele>2001.85</ele>
        <time>2022-06-04T15:59:49.000Z</time>
      </trkpt>
      <trkpt lat="44.12786" lon="6.69322">
        <ele>2000.86</ele>
        <time>2022-06-04T16:00:10.000Z</time>
      </trkpt>
      <trkpt lat="44.12766" lon="6.69341">
        <ele>2000.96</ele>
        <time>2022-06-04T16:00:40.000Z</time>
      </trkpt>
      <trkpt lat="44.12748" lon="6.69369">
        <ele>2001.93</ele>
        <time>2022-06-04T16:01:42.000Z</time>
      </trkpt>
      <trkpt lat="44.12735" lon="6.69386">
        <ele>2001.82</ele>
        <time>2022-06-04T16:02:30.000Z</time>
      </trkpt>
      <trkpt lat="44.12718" lon="6.69409">
        <ele>2002.98</ele>
        <time>2022-06-04T16:03:24.000Z</time>
      </trkpt>
      <trkpt lat="44.12703" lon="6.69428">
        <ele>2002.94</ele>
        <time>2022-06-04T16:03:58.000Z</time>
      </trkpt>
      <trkpt lat="44.12686" lon="6.69447">
        <ele>2004.04</ele>
        <time>2022-06-04T16:04:34.000Z</time>
      </trkpt>
      <trkpt lat="44.12669" lon="6.69457">
        <ele>2004.63</ele>
        <time>2022-06-04T16:05:20.000Z</time>
      </trkpt>
      <trkpt lat="44.12651" lon="6.69465">
        <ele>2003.31</ele>
        <time>2022-06-04T16:05:49.000Z</time>
      </trkpt>
      <trkpt lat="44.12633" lon="6.69473">
        <ele>2000.52</ele>
        <time>2022-06-04T16:06:09.000Z</time>
      </trkpt>
      <trkpt lat="44.12615" lon="6.69479">
        <ele>1996.33</ele>
        <time>2022-06-04T16:06:27.000Z</time>
      </trkpt>
      <trkpt lat="44.12597" lon="6.69487">
        <ele>1995.91</ele>
        <time>2022-06-04T16:06:45.000Z</time>
      </trkpt>
      <trkpt lat="44.1258" lon="6.69494">
        <ele>1994.15</ele>
        <time>2022-06-04T16:07:02.000Z</time>
      </trkpt>
      <trkpt lat="44.12563" lon="6.69506">
        <ele>1994.87</ele>
        <time>2022-06-04T16:07:19.000Z</time>
      </trkpt>
      <trkpt lat="44.12546" lon="6.69517">
        <ele>1998.07</ele>
        <time>2022-06-04T16:07:39.000Z</time>
      </trkpt>
      <trkpt lat="44.12528" lon="6.69518">
        <ele>1998.51</ele>
        <time>2022-06-04T16:08:53.000Z</time>
      </trkpt>
      <trkpt lat="44.12509" lon="6.69517">
        <ele>1999.95</ele>
        <time>2022-06-04T16:09:11.000Z</time>
      </trkpt>
      <trkpt lat="44.12491" lon="6.69524">
        <ele>2000.08</ele>
        <time>2022-06-04T16:09:32.000Z</time>
      </trkpt>
      <trkpt lat="44.12475" lon="6.69536">
        <ele>2000.99</ele>
        <time>2022-06-04T16:09:51.000Z</time>
      </trkpt>
      <trkpt lat="44.12457" lon="6.69542">
        <ele>2001.94</ele>
        <time>2022-06-04T16:10:09.000Z</time>
      </trkpt>
      <trkpt lat="44.12441" lon="6.69556">
        <ele>2001.64</ele>
        <time>2022-06-04T16:10:27.000Z</time>
      </trkpt>
      <trkpt lat="44.12426" lon="6.69569">
        <ele>2002.81</ele>
        <time>2022-06-04T16:10:46.000Z</time>
      </trkpt>
      <trkpt lat="44.12409" lon="6.69581">
        <ele>2002.45</ele>
        <time>2022-06-04T16:11:04.000Z</time>
      </trkpt>
      <trkpt lat="44.12393" lon="6.69593">
        <ele>2003.04</ele>
        <time>2022-06-04T16:11:31.000Z</time>
      </trkpt>
      <trkpt lat="44.12375" lon="6.69601">
        <ele>2004.44</ele>
        <time>2022-06-04T16:11:56.000Z</time>
      </trkpt>
      <trkpt lat="44.12357" lon="6.696">
        <ele>2006.63</ele>
        <time>2022-06-04T16:12:14.000Z</time>
      </trkpt>
      <trkpt lat="44.12339" lon="6.69598">
        <ele>2007.96</ele>
        <time>2022-06-04T16:12:32.000Z</time>
      </trkpt>
      <trkpt lat="44.12321" lon="6.69603">
        <ele>2009.48</ele>
        <time>2022-06-04T16:12:53.000Z</time>
      </trkpt>
      <trkpt lat="44.12306" lon="6.6962">
        <ele>2010.15</ele>
        <time>2022-06-04T16:13:13.000Z</time>
      </trkpt>
      <trkpt lat="44.12288" lon="6.69627">
        <ele>2009.8</ele>
        <time>2022-06-04T16:13:31.000Z</time>
      </trkpt>
      <trkpt lat="44.12271" lon="6.69635">
        <ele>2009.53</ele>
        <time>2022-06-04T16:13:50.000Z</time>
      </trkpt>
      <trkpt lat="44.12253" lon="6.69642">
        <ele>2006.89</ele>
        <time>2022-06-04T16:14:09.000Z</time>
      </trkpt>
      <trkpt lat="44.12235" lon="6.6965">
        <ele>2007.7</ele>
        <time>2022-06-04T16:14:28.000Z</time>
      </trkpt>
      <trkpt lat="44.12217" lon="6.69656">
        <ele>2009.65</ele>
        <time>2022-06-04T16:14:47.000Z</time>
      </trkpt>
      <trkpt lat="44.12199" lon="6.69663">
        <ele>2012.03</ele>
        <time>2022-06-04T16:15:08.000Z</time>
      </trkpt>
      <trkpt lat="44.12173" lon="6.69669">
        <ele>2014.98</ele>
        <time>2022-06-04T16:15:40.000Z</time>
      </trkpt>
      <trkpt lat="44.12157" lon="6.69687">
        <ele>2014.98</ele>
        <time>2022-06-04T16:16:05.000Z</time>
      </trkpt>
      <trkpt lat="44.12138" lon="6.69695">
        <ele>2015.97</ele>
        <time>2022-06-04T16:19:04.000Z</time>
      </trkpt>
      <trkpt lat="44.12122" lon="6.69718">
        <ele>2016.18</ele>
        <time>2022-06-04T16:19:31.000Z</time>
      </trkpt>
      <trkpt lat="44.1212" lon="6.69749">
        <ele>2017.92</ele>
        <time>2022-06-04T16:20:09.000Z</time>
      </trkpt>
      <trkpt lat="44.12107" lon="6.69774">
        <ele>2021.15</ele>
        <time>2022-06-04T16:21:03.000Z</time>
      </trkpt>
      <trkpt lat="44.12089" lon="6.69791">
        <ele>2024.25</ele>
        <time>2022-06-04T16:21:49.000Z</time>
      </trkpt>
      <trkpt lat="44.12076" lon="6.69815">
        <ele>2028.18</ele>
        <time>2022-06-04T16:22:28.000Z</time>
      </trkpt>
      <trkpt lat="44.12095" lon="6.69814">
        <ele>2042.27</ele>
        <time>2022-06-04T16:25:00.000Z</time>
      </trkpt>
      <trkpt lat="44.121" lon="6.69838">
        <ele>2044.49</ele>
        <time>2022-06-04T16:25:38.000Z</time>
      </trkpt>
      <trkpt lat="44.12087" lon="6.69858">
        <ele>2047.4</ele>
        <time>2022-06-04T16:26:12.000Z</time>
      </trkpt>
      <trkpt lat="44.12072" lon="6.6988">
        <ele>2055.02</ele>
        <time>2022-06-04T16:26:54.000Z</time>
      </trkpt>
      <trkpt lat="44.12059" lon="6.69904">
        <ele>2058.75</ele>
        <time>2022-06-04T16:27:28.000Z</time>
      </trkpt>
      <trkpt lat="44.12043" lon="6.69925">
        <ele>2065.74</ele>
        <time>2022-06-04T16:28:09.000Z</time>
      </trkpt>
      <trkpt lat="44.12022" lon="6.69934">
        <ele>2074.01</ele>
        <time>2022-06-04T16:29:02.000Z</time>
      </trkpt>
      <trkpt lat="44.12009" lon="6.69958">
        <ele>2080.57</ele>
        <time>2022-06-04T16:29:57.000Z</time>
      </trkpt>
      <trkpt lat="44.11993" lon="6.69978">
        <ele>2086.28</ele>
        <time>2022-06-04T16:30:52.000Z</time>
      </trkpt>
      <trkpt lat="44.11973" lon="6.69985">
        <ele>2091.85</ele>
        <time>2022-06-04T16:31:38.000Z</time>
      </trkpt>
      <trkpt lat="44.11955" lon="6.69999">
        <ele>2099.71</ele>
        <time>2022-06-04T16:32:44.000Z</time>
      </trkpt>
      <trkpt lat="44.11948" lon="6.70024">
        <ele>2108.78</ele>
        <time>2022-06-04T16:34:52.000Z</time>
      </trkpt>
      <trkpt lat="44.11947" lon="6.70051">
        <ele>2113.57</ele>
        <time>2022-06-04T16:35:32.000Z</time>
      </trkpt>
      <trkpt lat="44.11936" lon="6.70082">
        <ele>2118.38</ele>
        <time>2022-06-04T16:36:06.000Z</time>
      </trkpt>
      <trkpt lat="44.11928" lon="6.70106">
        <ele>2123.27</ele>
        <time>2022-06-04T16:36:33.000Z</time>
      </trkpt>
      <trkpt lat="44.11918" lon="6.70128">
        <ele>2124.67</ele>
        <time>2022-06-04T16:37:07.000Z</time>
      </trkpt>
      <trkpt lat="44.11899" lon="6.70151">
        <ele>2131.58</ele>
        <time>2022-06-04T16:38:36.000Z</time>
      </trkpt>
      <trkpt lat="44.11882" lon="6.7017">
        <ele>2137.82</ele>
        <time>2022-06-04T16:39:09.000Z</time>
      </trkpt>
      <trkpt lat="44.11869" lon="6.70191">
        <ele>2144.02</ele>
        <time>2022-06-04T16:39:32.000Z</time>
      </trkpt>
      <trkpt lat="44.11855" lon="6.70209">
        <ele>2149.33</ele>
        <time>2022-06-04T16:39:54.000Z</time>
      </trkpt>
      <trkpt lat="44.11846" lon="6.70231">
        <ele>2150.23</ele>
        <time>2022-06-04T16:40:13.000Z</time>
      </trkpt>
      <trkpt lat="44.11836" lon="6.70253">
        <ele>2153.22</ele>
        <time>2022-06-04T16:41:47.000Z</time>
      </trkpt>
      <trkpt lat="44.11825" lon="6.7028">
        <ele>2152</ele>
        <time>2022-06-04T16:42:26.000Z</time>
      </trkpt>
      <trkpt lat="44.11814" lon="6.70302">
        <ele>2153.81</ele>
        <time>2022-06-04T16:42:45.000Z</time>
      </trkpt>
      <trkpt lat="44.118" lon="6.7032">
        <ele>2157.71</ele>
        <time>2022-06-04T16:43:06.000Z</time>
      </trkpt>
      <trkpt lat="44.11792" lon="6.70342">
        <ele>2160.13</ele>
        <time>2022-06-04T16:43:26.000Z</time>
      </trkpt>
      <trkpt lat="44.11779" lon="6.70362">
        <ele>2165.01</ele>
        <time>2022-06-04T16:43:44.000Z</time>
      </trkpt>
      <trkpt lat="44.11764" lon="6.70376">
        <ele>2167.3</ele>
        <time>2022-06-04T16:44:02.000Z</time>
      </trkpt>
      <trkpt lat="44.11748" lon="6.70389">
        <ele>2169.74</ele>
        <time>2022-06-04T16:44:20.000Z</time>
      </trkpt>
      <trkpt lat="44.1173" lon="6.70399">
        <ele>2170.41</ele>
        <time>2022-06-04T16:44:38.000Z</time>
      </trkpt>
      <trkpt lat="44.11713" lon="6.70407">
        <ele>2171.35</ele>
        <time>2022-06-04T16:44:56.000Z</time>
      </trkpt>
      <trkpt lat="44.11694" lon="6.70414">
        <ele>2171.27</ele>
        <time>2022-06-04T16:45:15.000Z</time>
      </trkpt>
      <trkpt lat="44.11675" lon="6.7042">
        <ele>2172.54</ele>
        <time>2022-06-04T16:45:36.000Z</time>
      </trkpt>
      <trkpt lat="44.11657" lon="6.70429">
        <ele>2173.61</ele>
        <time>2022-06-04T16:47:05.000Z</time>
      </trkpt>
      <trkpt lat="44.11638" lon="6.70439">
        <ele>2177.57</ele>
        <time>2022-06-04T16:47:34.000Z</time>
      </trkpt>
      <trkpt lat="44.11621" lon="6.7045">
        <ele>2178.04</ele>
        <time>2022-06-04T16:47:59.000Z</time>
      </trkpt>
      <trkpt lat="44.11604" lon="6.70459">
        <ele>2174.83</ele>
        <time>2022-06-04T16:48:18.000Z</time>
      </trkpt>
      <trkpt lat="44.11585" lon="6.70458">
        <ele>2174.56</ele>
        <time>2022-06-04T16:48:35.000Z</time>
      </trkpt>
      <trkpt lat="44.11568" lon="6.70474">
        <ele>2175.94</ele>
        <time>2022-06-04T16:48:56.000Z</time>
      </trkpt>
      <trkpt lat="44.11552" lon="6.70487">
        <ele>2179</ele>
        <time>2022-06-04T16:49:16.000Z</time>
      </trkpt>
      <trkpt lat="44.11531" lon="6.70502">
        <ele>2181.93</ele>
        <time>2022-06-04T16:50:18.000Z</time>
      </trkpt>
      <trkpt lat="44.11511" lon="6.70492">
        <ele>2184.15</ele>
        <time>2022-06-04T16:52:29.000Z</time>
      </trkpt>
      <trkpt lat="44.11494" lon="6.70502">
        <ele>2187.51</ele>
        <time>2022-06-04T16:52:55.000Z</time>
      </trkpt>
      <trkpt lat="44.11479" lon="6.70516">
        <ele>2188.53</ele>
        <time>2022-06-04T16:53:15.000Z</time>
      </trkpt>
      <trkpt lat="44.11462" lon="6.70528">
        <ele>2190.68</ele>
        <time>2022-06-04T16:53:37.000Z</time>
      </trkpt>
      <trkpt lat="44.11444" lon="6.70526">
        <ele>2191.26</ele>
        <time>2022-06-04T16:53:54.000Z</time>
      </trkpt>
      <trkpt lat="44.11425" lon="6.70527">
        <ele>2194.92</ele>
        <time>2022-06-04T16:54:36.000Z</time>
      </trkpt>
      <trkpt lat="44.11408" lon="6.70534">
        <ele>2196.24</ele>
        <time>2022-06-04T16:55:00.000Z</time>
      </trkpt>
      <trkpt lat="44.1139" lon="6.70542">
        <ele>2195.26</ele>
        <time>2022-06-04T16:55:16.000Z</time>
      </trkpt>
      <trkpt lat="44.11371" lon="6.70543">
        <ele>2195.97</ele>
        <time>2022-06-04T16:55:34.000Z</time>
      </trkpt>
      <trkpt lat="44.11351" lon="6.70545">
        <ele>2198.08</ele>
        <time>2022-06-04T16:55:56.000Z</time>
      </trkpt>
      <trkpt lat="44.11333" lon="6.70538">
        <ele>2205.66</ele>
        <time>2022-06-04T16:56:15.000Z</time>
      </trkpt>
      <trkpt lat="44.11311" lon="6.70542">
        <ele>2210.36</ele>
        <time>2022-06-04T16:56:40.000Z</time>
      </trkpt>
      <trkpt lat="44.11294" lon="6.70552">
        <ele>2215.96</ele>
        <time>2022-06-04T16:58:16.000Z</time>
      </trkpt>
      <trkpt lat="44.11272" lon="6.7056">
        <ele>2216.26</ele>
        <time>2022-06-04T16:59:00.000Z</time>
      </trkpt>
      <trkpt lat="44.11249" lon="6.70568">
        <ele>2215.31</ele>
        <time>2022-06-04T16:59:28.000Z</time>
      </trkpt>
      <trkpt lat="44.11227" lon="6.70578">
        <ele>2215.67</ele>
        <time>2022-06-04T16:59:57.000Z</time>
      </trkpt>
      <trkpt lat="44.11204" lon="6.70584">
        <ele>2219.35</ele>
        <time>2022-06-04T17:00:50.000Z</time>
      </trkpt>
      <trkpt lat="44.11183" lon="6.70599">
        <ele>2222.22</ele>
        <time>2022-06-04T17:01:22.000Z</time>
      </trkpt>
      <trkpt lat="44.11161" lon="6.70605">
        <ele>2225.27</ele>
        <time>2022-06-04T17:01:53.000Z</time>
      </trkpt>
      <trkpt lat="44.11142" lon="6.70607">
        <ele>2228.42</ele>
        <time>2022-06-04T17:03:09.000Z</time>
      </trkpt>
      <trkpt lat="44.11121" lon="6.70621">
        <ele>2228.47</ele>
        <time>2022-06-04T17:03:49.000Z</time>
      </trkpt>
      <trkpt lat="44.11103" lon="6.70623">
        <ele>2223.75</ele>
        <time>2022-06-04T17:04:13.000Z</time>
      </trkpt>
      <trkpt lat="44.11085" lon="6.70616">
        <ele>2221.39</ele>
        <time>2022-06-04T17:04:31.000Z</time>
      </trkpt>
      <trkpt lat="44.11062" lon="6.70613">
        <ele>2221.76</ele>
        <time>2022-06-04T17:04:58.000Z</time>
      </trkpt>
      <trkpt lat="44.11043" lon="6.70618">
        <ele>2221.2</ele>
        <time>2022-06-04T17:05:25.000Z</time>
      </trkpt>
      <trkpt lat="44.11025" lon="6.7062">
        <ele>2222.66</ele>
        <time>2022-06-04T17:05:46.000Z</time>
      </trkpt>
      <trkpt lat="44.11007" lon="6.70616">
        <ele>2223.63</ele>
        <time>2022-06-04T17:06:07.000Z</time>
      </trkpt>
      <trkpt lat="44.10985" lon="6.70615">
        <ele>2222.26</ele>
        <time>2022-06-04T17:06:27.000Z</time>
      </trkpt>
      <trkpt lat="44.10967" lon="6.70618">
        <ele>2220.16</ele>
        <time>2022-06-04T17:06:44.000Z</time>
      </trkpt>
      <trkpt lat="44.10949" lon="6.70625">
        <ele>2219.18</ele>
        <time>2022-06-04T17:07:07.000Z</time>
      </trkpt>
      <trkpt lat="44.10925" lon="6.70634">
        <ele>2218.42</ele>
        <time>2022-06-04T17:07:40.000Z</time>
      </trkpt>
      <trkpt lat="44.10907" lon="6.70641">
        <ele>2218.12</ele>
        <time>2022-06-04T17:07:58.000Z</time>
      </trkpt>
      <trkpt lat="44.1089" lon="6.70649">
        <ele>2216.34</ele>
        <time>2022-06-04T17:08:14.000Z</time>
      </trkpt>
      <trkpt lat="44.10872" lon="6.70654">
        <ele>2217.27</ele>
        <time>2022-06-04T17:08:32.000Z</time>
      </trkpt>
      <trkpt lat="44.10854" lon="6.70661">
        <ele>2219.01</ele>
        <time>2022-06-04T17:08:51.000Z</time>
      </trkpt>
      <trkpt lat="44.10833" lon="6.70662">
        <ele>2220.31</ele>
        <time>2022-06-04T17:09:19.000Z</time>
      </trkpt>
      <trkpt lat="44.10815" lon="6.70662">
        <ele>2219.31</ele>
        <time>2022-06-04T17:09:38.000Z</time>
      </trkpt>
      <trkpt lat="44.10796" lon="6.70664">
        <ele>2219.23</ele>
        <time>2022-06-04T17:10:00.000Z</time>
      </trkpt>
      <trkpt lat="44.10778" lon="6.7067">
        <ele>2218.07</ele>
        <time>2022-06-04T17:10:16.000Z</time>
      </trkpt>
      <trkpt lat="44.1076" lon="6.70666">
        <ele>2217.33</ele>
        <time>2022-06-04T17:10:35.000Z</time>
      </trkpt>
      <trkpt lat="44.10741" lon="6.70665">
        <ele>2219.02</ele>
        <time>2022-06-04T17:10:55.000Z</time>
      </trkpt>
      <trkpt lat="44.10724" lon="6.70657">
        <ele>2221.12</ele>
        <time>2022-06-04T17:11:36.000Z</time>
      </trkpt>
      <trkpt lat="44.10705" lon="6.70653">
        <ele>2224.35</ele>
        <time>2022-06-04T17:11:56.000Z</time>
      </trkpt>
      <trkpt lat="44.10686" lon="6.70642">
        <ele>2226.36</ele>
        <time>2022-06-04T17:12:22.000Z</time>
      </trkpt>
      <trkpt lat="44.10668" lon="6.70634">
        <ele>2228.92</ele>
        <time>2022-06-04T17:12:42.000Z</time>
      </trkpt>
      <trkpt lat="44.1065" lon="6.7063">
        <ele>2231.85</ele>
        <time>2022-06-04T17:13:04.000Z</time>
      </trkpt>
      <trkpt lat="44.10627" lon="6.7063">
        <ele>2231.77</ele>
        <time>2022-06-04T17:13:28.000Z</time>
      </trkpt>
      <trkpt lat="44.1061" lon="6.70637">
        <ele>2229.42</ele>
        <time>2022-06-04T17:13:47.000Z</time>
      </trkpt>
      <trkpt lat="44.10593" lon="6.70646">
        <ele>2228.38</ele>
        <time>2022-06-04T17:14:16.000Z</time>
      </trkpt>
      <trkpt lat="44.10574" lon="6.70649">
        <ele>2229.8</ele>
        <time>2022-06-04T17:14:38.000Z</time>
      </trkpt>
      <trkpt lat="44.10556" lon="6.70654">
        <ele>2230.54</ele>
        <time>2022-06-04T17:15:02.000Z</time>
      </trkpt>
      <trkpt lat="44.10539" lon="6.7066">
        <ele>2229.49</ele>
        <time>2022-06-04T17:15:26.000Z</time>
      </trkpt>
      <trkpt lat="44.10515" lon="6.70671">
        <ele>2227.19</ele>
        <time>2022-06-04T17:15:53.000Z</time>
      </trkpt>
      <trkpt lat="44.10488" lon="6.70675">
        <ele>2225.23</ele>
        <time>2022-06-04T17:16:25.000Z</time>
      </trkpt>
      <trkpt lat="44.10466" lon="6.70672">
        <ele>2223.79</ele>
        <time>2022-06-04T17:17:07.000Z</time>
      </trkpt>
      <trkpt lat="44.1045" lon="6.70685">
        <ele>2223.5</ele>
        <time>2022-06-04T17:17:32.000Z</time>
      </trkpt>
      <trkpt lat="44.10436" lon="6.70701">
        <ele>2221.86</ele>
        <time>2022-06-04T17:17:52.000Z</time>
      </trkpt>
      <trkpt lat="44.10413" lon="6.70717">
        <ele>2222.02</ele>
        <time>2022-06-04T17:18:21.000Z</time>
      </trkpt>
      <trkpt lat="44.104" lon="6.70743">
        <ele>2222.84</ele>
        <time>2022-06-04T17:18:58.000Z</time>
      </trkpt>
      <trkpt lat="44.10378" lon="6.7076">
        <ele>2221.73</ele>
        <time>2022-06-04T17:19:43.000Z</time>
      </trkpt>
      <trkpt lat="44.10394" lon="6.70726">
        <ele>2272.3</ele>
      </trkpt>
      <trkpt lat="44.10487" lon="6.70651">
        <ele>2273</ele>
      </trkpt>
      <trkpt lat="44.10498" lon="6.70631">
        <ele>2273</ele>
      </trkpt>
      <trkpt lat="44.10504" lon="6.70602">
        <ele>2273.6</ele>
      </trkpt>
      <trkpt lat="44.10507" lon="6.70572">
        <ele>2275.3</ele>
      </trkpt>
      <trkpt lat="44.1051" lon="6.70534">
        <ele>2277.1</ele>
      </trkpt>
      <trkpt lat="44.10507" lon="6.70469">
        <ele>2281.9</ele>
      </trkpt>
      <trkpt lat="44.10512" lon="6.70406">
        <ele>2286.3</ele>
      </trkpt>
      <trkpt lat="44.10521" lon="6.70384">
        <ele>2287.4</ele>
        <time>2022-06-05T06:51:22.000Z</time>
      </trkpt>
    </trkseg>
  </trk>
</gpx>